sensor_id;sensor_type;location;lat;lon;timestamp;P1;durP1;ratioP1;P2;durP2;ratioP2
10985;SDS011;5546;48.714;8.738;2022-11-15T00:01:38;10.80;;;7.60;;
10985;SDS011;5546;48.714;8.738;2022-11-15T00:04:03;9.40;;;7.37;;
10985;SDS011;5546;48.714;8.738;2022-11-15T00:06:29;12.67;;;7.27;;
10985;SDS011;5546;48.714;8.738;2022-11-15T00:08:57;12.27;;;7.97;;
10985;SDS011;5546;48.714;8.738;2022-11-15T00:11:23;14.27;;;8.00;;
10985;SDS011;5546;48.714;8.738;2022-11-15T00:13:49;13.10;;;8.07;;
10985;SDS011;5546;48.714;8.738;2022-11-15T00:16:14;11.63;;;8.40;;
10985;SDS011;5546;48.714;8.738;2022-11-15T00:18:40;13.90;;;10.10;;
10985;SDS011;5546;48.714;8.738;2022-11-15T00:21:07;17.33;;;10.30;;
10985;SDS011;5546;48.714;8.738;2022-11-15T00:23:34;16.47;;;10.17;;
10985;SDS011;5546;48.714;8.738;2022-11-15T00:26:00;12.43;;;10.07;;
10985;SDS011;5546;48.714;8.738;2022-11-15T00:28:26;15.30;;;11.13;;
10985;SDS011;5546;48.714;8.738;2022-11-15T00:30:52;13.23;;;10.27;;
10985;SDS011;5546;48.714;8.738;2022-11-15T00:33:17;14.50;;;9.57;;
10985;SDS011;5546;48.714;8.738;2022-11-15T00:35:43;11.37;;;8.37;;
10985;SDS011;5546;48.714;8.738;2022-11-15T00:38:09;14.53;;;9.43;;
10985;SDS011;5546;48.714;8.738;2022-11-15T00:40:34;14.47;;;8.53;;
10985;SDS011;5546;48.714;8.738;2022-11-15T00:42:59;10.87;;;7.80;;
10985;SDS011;5546;48.714;8.738;2022-11-15T00:45:25;12.83;;;8.10;;
10985;SDS011;5546;48.714;8.738;2022-11-15T00:47:51;11.37;;;8.10;;
10985;SDS011;5546;48.714;8.738;2022-11-15T00:50:17;11.87;;;8.33;;
10985;SDS011;5546;48.714;8.738;2022-11-15T00:52:43;14.97;;;8.10;;
10985;SDS011;5546;48.714;8.738;2022-11-15T00:55:12;12.07;;;7.63;;
10985;SDS011;5546;48.714;8.738;2022-11-15T00:57:41;9.90;;;7.80;;
10985;SDS011;5546;48.714;8.738;2022-11-15T01:00:07;10.70;;;7.93;;
10985;SDS011;5546;48.714;8.738;2022-11-15T01:02:33;9.07;;;6.87;;
10985;SDS011;5546;48.714;8.738;2022-11-15T01:04:59;9.83;;;7.20;;
10985;SDS011;5546;48.714;8.738;2022-11-15T01:07:25;10.10;;;7.40;;
10985;SDS011;5546;48.714;8.738;2022-11-15T01:09:50;12.20;;;7.17;;
10985;SDS011;5546;48.714;8.738;2022-11-15T01:12:15;9.17;;;6.63;;
10985;SDS011;5546;48.714;8.738;2022-11-15T01:14:41;8.10;;;6.67;;
10985;SDS011;5546;48.714;8.738;2022-11-15T01:17:06;9.97;;;6.77;;
10985;SDS011;5546;48.714;8.738;2022-11-15T01:19:32;8.53;;;6.87;;
10985;SDS011;5546;48.714;8.738;2022-11-15T01:21:57;9.33;;;6.50;;
10985;SDS011;5546;48.714;8.738;2022-11-15T01:24:23;10.50;;;7.10;;
10985;SDS011;5546;48.714;8.738;2022-11-15T01:26:48;11.07;;;6.97;;
10985;SDS011;5546;48.714;8.738;2022-11-15T01:29:14;11.27;;;7.70;;
10985;SDS011;5546;48.714;8.738;2022-11-15T01:31:39;12.83;;;7.27;;
10985;SDS011;5546;48.714;8.738;2022-11-15T01:34:05;9.80;;;7.77;;
10985;SDS011;5546;48.714;8.738;2022-11-15T01:36:31;11.30;;;7.60;;
10985;SDS011;5546;48.714;8.738;2022-11-15T01:38:57;11.00;;;7.97;;
10985;SDS011;5546;48.714;8.738;2022-11-15T01:41:24;9.67;;;6.90;;
10985;SDS011;5546;48.714;8.738;2022-11-15T01:43:53;8.93;;;7.00;;
10985;SDS011;5546;48.714;8.738;2022-11-15T01:46:22;10.97;;;7.03;;
10985;SDS011;5546;48.714;8.738;2022-11-15T01:48:59;8.37;;;6.73;;
10985;SDS011;5546;48.714;8.738;2022-11-15T01:51:30;10.43;;;6.47;;
10985;SDS011;5546;48.714;8.738;2022-11-15T01:53:58;8.27;;;6.60;;
10985;SDS011;5546;48.714;8.738;2022-11-15T01:56:35;10.47;;;6.67;;
10985;SDS011;5546;48.714;8.738;2022-11-15T01:59:06;11.27;;;6.60;;
10985;SDS011;5546;48.714;8.738;2022-11-15T02:01:33;8.07;;;6.33;;
10985;SDS011;5546;48.714;8.738;2022-11-15T02:03:59;8.83;;;6.40;;
10985;SDS011;5546;48.714;8.738;2022-11-15T02:06:26;8.00;;;6.80;;
10985;SDS011;5546;48.714;8.738;2022-11-15T02:08:51;10.07;;;6.77;;
10985;SDS011;5546;48.714;8.738;2022-11-15T02:11:17;10.20;;;6.83;;
10985;SDS011;5546;48.714;8.738;2022-11-15T02:13:43;12.67;;;7.17;;
10985;SDS011;5546;48.714;8.738;2022-11-15T02:18:46;8.07;;;6.73;;
10985;SDS011;5546;48.714;8.738;2022-11-15T02:21:19;7.23;;;6.50;;
10985;SDS011;5546;48.714;8.738;2022-11-15T02:29:30;8.60;;;6.70;;
10985;SDS011;5546;48.714;8.738;2022-11-15T02:32:20;8.57;;;6.30;;
10985;SDS011;5546;48.714;8.738;2022-11-15T02:43:06;7.57;;;6.20;;
10985;SDS011;5546;48.714;8.738;2022-11-15T02:45:55;7.07;;;6.37;;
10985;SDS011;5546;48.714;8.738;2022-11-15T02:48:26;15.83;;;8.10;;
10985;SDS011;5546;48.714;8.738;2022-11-15T02:50:53;12.97;;;7.50;;
10985;SDS011;5546;48.714;8.738;2022-11-15T02:53:23;7.13;;;5.90;;
10985;SDS011;5546;48.714;8.738;2022-11-15T02:55:49;11.33;;;6.10;;
10985;SDS011;5546;48.714;8.738;2022-11-15T02:58:22;10.17;;;6.57;;
10985;SDS011;5546;48.714;8.738;2022-11-15T03:01:18;8.23;;;6.00;;
10985;SDS011;5546;48.714;8.738;2022-11-15T03:04:28;9.63;;;5.80;;
10985;SDS011;5546;48.714;8.738;2022-11-15T03:07:14;7.77;;;6.67;;
10985;SDS011;5546;48.714;8.738;2022-11-15T03:15:16;7.57;;;5.60;;
10985;SDS011;5546;48.714;8.738;2022-11-15T03:17:58;7.87;;;5.87;;
10985;SDS011;5546;48.714;8.738;2022-11-15T03:20:25;8.20;;;5.97;;
10985;SDS011;5546;48.714;8.738;2022-11-15T03:22:52;11.50;;;8.40;;
10985;SDS011;5546;48.714;8.738;2022-11-15T03:25:20;8.70;;;6.97;;
10985;SDS011;5546;48.714;8.738;2022-11-15T03:27:50;10.57;;;7.60;;
10985;SDS011;5546;48.714;8.738;2022-11-15T03:30:18;16.73;;;9.97;;
10985;SDS011;5546;48.714;8.738;2022-11-15T03:32:46;10.97;;;8.40;;
10985;SDS011;5546;48.714;8.738;2022-11-15T03:35:17;9.73;;;6.70;;
10985;SDS011;5546;48.714;8.738;2022-11-15T03:37:48;8.63;;;7.33;;
10985;SDS011;5546;48.714;8.738;2022-11-15T03:40:49;8.03;;;6.10;;
10985;SDS011;5546;48.714;8.738;2022-11-15T03:43:30;9.40;;;6.77;;
10985;SDS011;5546;48.714;8.738;2022-11-15T03:46:02;12.30;;;6.43;;
10985;SDS011;5546;48.714;8.738;2022-11-15T03:48:37;9.53;;;7.10;;
10985;SDS011;5546;48.714;8.738;2022-11-15T03:51:08;7.77;;;6.80;;
10985;SDS011;5546;48.714;8.738;2022-11-15T03:53:34;10.10;;;6.60;;
10985;SDS011;5546;48.714;8.738;2022-11-15T03:55:59;7.60;;;6.30;;
10985;SDS011;5546;48.714;8.738;2022-11-15T03:58:25;12.43;;;6.63;;
10985;SDS011;5546;48.714;8.738;2022-11-15T04:00:50;7.47;;;6.10;;
10985;SDS011;5546;48.714;8.738;2022-11-15T04:03:16;8.00;;;6.43;;
10985;SDS011;5546;48.714;8.738;2022-11-15T04:05:41;8.57;;;7.13;;
10985;SDS011;5546;48.714;8.738;2022-11-15T04:08:07;7.50;;;5.97;;
10985;SDS011;5546;48.714;8.738;2022-11-15T04:10:32;7.33;;;6.50;;
10985;SDS011;5546;48.714;8.738;2022-11-15T04:12:58;11.67;;;6.27;;
10985;SDS011;5546;48.714;8.738;2022-11-15T04:15:23;9.17;;;6.40;;
10985;SDS011;5546;48.714;8.738;2022-11-15T04:17:50;8.30;;;6.40;;
10985;SDS011;5546;48.714;8.738;2022-11-15T04:20:21;7.60;;;6.40;;
10985;SDS011;5546;48.714;8.738;2022-11-15T04:23:07;8.77;;;6.17;;
10985;SDS011;5546;48.714;8.738;2022-11-15T04:26:02;7.73;;;6.40;;
10985;SDS011;5546;48.714;8.738;2022-11-15T04:28:32;8.87;;;6.00;;
10985;SDS011;5546;48.714;8.738;2022-11-15T04:30:57;10.27;;;6.27;;
10985;SDS011;5546;48.714;8.738;2022-11-15T04:33:23;7.77;;;6.17;;
10985;SDS011;5546;48.714;8.738;2022-11-15T04:35:49;12.63;;;6.53;;
10985;SDS011;5546;48.714;8.738;2022-11-15T04:38:50;11.10;;;6.70;;
10985;SDS011;5546;48.714;8.738;2022-11-15T04:41:15;7.53;;;6.33;;
10985;SDS011;5546;48.714;8.738;2022-11-15T04:43:41;11.73;;;6.43;;
10985;SDS011;5546;48.714;8.738;2022-11-15T04:46:06;8.23;;;6.30;;
10985;SDS011;5546;48.714;8.738;2022-11-15T04:48:32;9.43;;;7.37;;
10985;SDS011;5546;48.714;8.738;2022-11-15T04:50:58;12.03;;;6.90;;
10985;SDS011;5546;48.714;8.738;2022-11-15T04:53:23;10.97;;;7.40;;
10985;SDS011;5546;48.714;8.738;2022-11-15T04:55:49;7.53;;;6.60;;
10985;SDS011;5546;48.714;8.738;2022-11-15T04:58:14;8.47;;;6.93;;
10985;SDS011;5546;48.714;8.738;2022-11-15T05:00:40;9.13;;;6.67;;
10985;SDS011;5546;48.714;8.738;2022-11-15T05:03:05;8.67;;;6.67;;
10985;SDS011;5546;48.714;8.738;2022-11-15T05:05:49;7.70;;;6.60;;
10985;SDS011;5546;48.714;8.738;2022-11-15T05:08:15;9.20;;;7.00;;
10985;SDS011;5546;48.714;8.738;2022-11-15T05:10:40;11.00;;;7.70;;
10985;SDS011;5546;48.714;8.738;2022-11-15T05:13:06;12.47;;;7.40;;
10985;SDS011;5546;48.714;8.738;2022-11-15T05:15:31;9.53;;;6.47;;
10985;SDS011;5546;48.714;8.738;2022-11-15T05:17:57;11.13;;;6.77;;
10985;SDS011;5546;48.714;8.738;2022-11-15T05:20:24;9.23;;;6.50;;
10985;SDS011;5546;48.714;8.738;2022-11-15T05:22:50;7.27;;;6.30;;
10985;SDS011;5546;48.714;8.738;2022-11-15T05:25:15;8.03;;;6.70;;
10985;SDS011;5546;48.714;8.738;2022-11-15T05:27:41;23.30;;;13.97;;
10985;SDS011;5546;48.714;8.738;2022-11-15T05:30:07;14.53;;;9.80;;
10985;SDS011;5546;48.714;8.738;2022-11-15T05:32:32;13.97;;;8.37;;
10985;SDS011;5546;48.714;8.738;2022-11-15T05:34:58;7.90;;;6.20;;
10985;SDS011;5546;48.714;8.738;2022-11-15T05:37:23;8.27;;;7.00;;
10985;SDS011;5546;48.714;8.738;2022-11-15T05:39:49;11.63;;;7.37;;
10985;SDS011;5546;48.714;8.738;2022-11-15T05:42:15;7.57;;;5.80;;
10985;SDS011;5546;48.714;8.738;2022-11-15T05:44:42;6.97;;;5.70;;
10985;SDS011;5546;48.714;8.738;2022-11-15T05:47:13;7.97;;;6.70;;
10985;SDS011;5546;48.714;8.738;2022-11-15T05:49:41;12.53;;;6.70;;
10985;SDS011;5546;48.714;8.738;2022-11-15T05:52:09;7.33;;;6.53;;
10985;SDS011;5546;48.714;8.738;2022-11-15T05:54:38;8.77;;;7.23;;
10985;SDS011;5546;48.714;8.738;2022-11-15T05:57:04;11.50;;;8.80;;
10985;SDS011;5546;48.714;8.738;2022-11-15T05:59:30;13.40;;;8.53;;
10985;SDS011;5546;48.714;8.738;2022-11-15T06:01:57;13.10;;;9.00;;
10985;SDS011;5546;48.714;8.738;2022-11-15T06:04:22;12.97;;;8.60;;
10985;SDS011;5546;48.714;8.738;2022-11-15T06:06:48;15.70;;;7.57;;
10985;SDS011;5546;48.714;8.738;2022-11-15T06:09:14;11.27;;;9.23;;
10985;SDS011;5546;48.714;8.738;2022-11-15T06:11:39;20.70;;;12.63;;
10985;SDS011;5546;48.714;8.738;2022-11-15T06:14:04;13.67;;;9.83;;
10985;SDS011;5546;48.714;8.738;2022-11-15T06:16:30;15.30;;;12.13;;
10985;SDS011;5546;48.714;8.738;2022-11-15T06:18:55;20.23;;;11.73;;
10985;SDS011;5546;48.714;8.738;2022-11-15T06:21:21;16.27;;;10.20;;
10985;SDS011;5546;48.714;8.738;2022-11-15T06:23:47;15.97;;;9.73;;
10985;SDS011;5546;48.714;8.738;2022-11-15T06:26:12;14.43;;;10.50;;
10985;SDS011;5546;48.714;8.738;2022-11-15T06:28:38;13.37;;;9.60;;
10985;SDS011;5546;48.714;8.738;2022-11-15T06:31:08;14.77;;;8.00;;
10985;SDS011;5546;48.714;8.738;2022-11-15T06:33:38;12.03;;;9.80;;
10985;SDS011;5546;48.714;8.738;2022-11-15T06:36:05;13.47;;;9.47;;
10985;SDS011;5546;48.714;8.738;2022-11-15T06:38:32;18.57;;;12.70;;
10985;SDS011;5546;48.714;8.738;2022-11-15T06:41:02;17.03;;;12.57;;
10985;SDS011;5546;48.714;8.738;2022-11-15T06:43:29;27.10;;;18.87;;
10985;SDS011;5546;48.714;8.738;2022-11-15T06:45:54;25.17;;;17.43;;
10985;SDS011;5546;48.714;8.738;2022-11-15T06:48:20;23.30;;;16.23;;
10985;SDS011;5546;48.714;8.738;2022-11-15T06:50:56;20.83;;;14.90;;
10985;SDS011;5546;48.714;8.738;2022-11-15T06:53:23;14.77;;;12.33;;
10985;SDS011;5546;48.714;8.738;2022-11-15T06:55:49;16.37;;;12.97;;
10985;SDS011;5546;48.714;8.738;2022-11-15T06:58:15;14.70;;;12.43;;
10985;SDS011;5546;48.714;8.738;2022-11-15T07:00:41;14.87;;;11.20;;
10985;SDS011;5546;48.714;8.738;2022-11-15T07:03:07;14.77;;;10.27;;
10985;SDS011;5546;48.714;8.738;2022-11-15T07:05:32;15.90;;;11.13;;
10985;SDS011;5546;48.714;8.738;2022-11-15T07:07:58;11.13;;;7.97;;
10985;SDS011;5546;48.714;8.738;2022-11-15T07:10:25;12.37;;;8.90;;
10985;SDS011;5546;48.714;8.738;2022-11-15T07:12:51;15.43;;;10.77;;
10985;SDS011;5546;48.714;8.738;2022-11-15T07:15:18;14.40;;;9.93;;
10985;SDS011;5546;48.714;8.738;2022-11-15T07:17:45;12.27;;;9.10;;
10985;SDS011;5546;48.714;8.738;2022-11-15T07:20:10;23.63;;;15.00;;
10985;SDS011;5546;48.714;8.738;2022-11-15T07:22:38;26.87;;;18.27;;
10985;SDS011;5546;48.714;8.738;2022-11-15T07:25:03;20.93;;;14.07;;
10985;SDS011;5546;48.714;8.738;2022-11-15T07:27:29;21.70;;;13.73;;
10985;SDS011;5546;48.714;8.738;2022-11-15T07:29:55;26.43;;;14.73;;
10985;SDS011;5546;48.714;8.738;2022-11-15T07:32:20;17.33;;;12.27;;
10985;SDS011;5546;48.714;8.738;2022-11-15T07:34:46;18.13;;;12.03;;
10985;SDS011;5546;48.714;8.738;2022-11-15T07:37:12;13.50;;;7.63;;
10985;SDS011;5546;48.714;8.738;2022-11-15T07:39:37;7.80;;;6.50;;
10985;SDS011;5546;48.714;8.738;2022-11-15T07:42:03;11.23;;;7.57;;
10985;SDS011;5546;48.714;8.738;2022-11-15T07:44:47;11.20;;;6.43;;
10985;SDS011;5546;48.714;8.738;2022-11-15T07:47:13;8.33;;;6.20;;
10985;SDS011;5546;48.714;8.738;2022-11-15T07:49:38;7.40;;;6.57;;
10985;SDS011;5546;48.714;8.738;2022-11-15T07:52:04;11.93;;;7.50;;
10985;SDS011;5546;48.714;8.738;2022-11-15T07:54:29;13.13;;;9.50;;
10985;SDS011;5546;48.714;8.738;2022-11-15T07:56:55;17.43;;;11.03;;
10985;SDS011;5546;48.714;8.738;2022-11-15T07:59:20;12.67;;;7.70;;
10985;SDS011;5546;48.714;8.738;2022-11-15T08:01:46;16.50;;;9.70;;
10985;SDS011;5546;48.714;8.738;2022-11-15T08:04:12;12.57;;;8.43;;
10985;SDS011;5546;48.714;8.738;2022-11-15T08:06:37;14.83;;;7.60;;
10985;SDS011;5546;48.714;8.738;2022-11-15T08:09:03;10.67;;;7.37;;
10985;SDS011;5546;48.714;8.738;2022-11-15T08:11:28;13.43;;;8.33;;
10985;SDS011;5546;48.714;8.738;2022-11-15T08:13:54;7.00;;;5.03;;
10985;SDS011;5546;48.714;8.738;2022-11-15T08:16:20;7.37;;;4.23;;
10985;SDS011;5546;48.714;8.738;2022-11-15T08:18:45;5.60;;;4.70;;
10985;SDS011;5546;48.714;8.738;2022-11-15T08:21:12;5.40;;;4.13;;
10985;SDS011;5546;48.714;8.738;2022-11-15T08:23:41;7.10;;;4.60;;
10985;SDS011;5546;48.714;8.738;2022-11-15T08:26:06;6.17;;;4.37;;
10985;SDS011;5546;48.714;8.738;2022-11-15T08:28:33;5.40;;;3.90;;
10985;SDS011;5546;48.714;8.738;2022-11-15T08:30:58;5.07;;;3.97;;
10985;SDS011;5546;48.714;8.738;2022-11-15T08:33:24;3.50;;;3.20;;
10985;SDS011;5546;48.714;8.738;2022-11-15T08:35:49;4.50;;;3.67;;
10985;SDS011;5546;48.714;8.738;2022-11-15T08:38:15;5.87;;;4.17;;
10985;SDS011;5546;48.714;8.738;2022-11-15T08:40:40;7.73;;;4.37;;
10985;SDS011;5546;48.714;8.738;2022-11-15T08:43:06;4.93;;;4.03;;
10985;SDS011;5546;48.714;8.738;2022-11-15T08:45:33;4.47;;;3.80;;
10985;SDS011;5546;48.714;8.738;2022-11-15T08:48:00;4.97;;;3.60;;
10985;SDS011;5546;48.714;8.738;2022-11-15T08:50:27;6.53;;;4.87;;
10985;SDS011;5546;48.714;8.738;2022-11-15T08:52:52;5.67;;;4.30;;
10985;SDS011;5546;48.714;8.738;2022-11-15T08:55:18;7.70;;;5.17;;
10985;SDS011;5546;48.714;8.738;2022-11-15T08:57:44;7.17;;;5.20;;
10985;SDS011;5546;48.714;8.738;2022-11-15T09:00:10;9.10;;;4.57;;
10985;SDS011;5546;48.714;8.738;2022-11-15T09:02:37;7.70;;;4.73;;
10985;SDS011;5546;48.714;8.738;2022-11-15T09:05:06;6.03;;;4.13;;
10985;SDS011;5546;48.714;8.738;2022-11-15T09:07:32;5.30;;;3.83;;
10985;SDS011;5546;48.714;8.738;2022-11-15T09:09:57;6.23;;;4.30;;
10985;SDS011;5546;48.714;8.738;2022-11-15T09:12:23;4.67;;;3.67;;
10985;SDS011;5546;48.714;8.738;2022-11-15T09:14:49;5.40;;;3.57;;
10985;SDS011;5546;48.714;8.738;2022-11-15T09:17:15;4.30;;;3.90;;
10985;SDS011;5546;48.714;8.738;2022-11-15T09:19:40;6.03;;;3.50;;
10985;SDS011;5546;48.714;8.738;2022-11-15T09:22:06;3.27;;;2.97;;
10985;SDS011;5546;48.714;8.738;2022-11-15T09:24:32;5.10;;;3.40;;
10985;SDS011;5546;48.714;8.738;2022-11-15T09:26:58;3.67;;;3.10;;
10985;SDS011;5546;48.714;8.738;2022-11-15T09:29:24;5.90;;;3.37;;
10985;SDS011;5546;48.714;8.738;2022-11-15T09:31:51;3.87;;;3.30;;
10985;SDS011;5546;48.714;8.738;2022-11-15T09:34:17;3.70;;;2.73;;
10985;SDS011;5546;48.714;8.738;2022-11-15T09:36:43;3.60;;;3.27;;
10985;SDS011;5546;48.714;8.738;2022-11-15T09:39:08;5.93;;;3.13;;
10985;SDS011;5546;48.714;8.738;2022-11-15T09:44:39;5.30;;;3.20;;
10985;SDS011;5546;48.714;8.738;2022-11-15T09:50:08;4.33;;;3.53;;
10985;SDS011;5546;48.714;8.738;2022-11-15T09:52:36;3.67;;;3.07;;
10985;SDS011;5546;48.714;8.738;2022-11-15T09:55:05;4.33;;;3.10;;
10985;SDS011;5546;48.714;8.738;2022-11-15T09:57:47;4.63;;;3.17;;
10985;SDS011;5546;48.714;8.738;2022-11-15T10:00:20;5.40;;;3.30;;
10985;SDS011;5546;48.714;8.738;2022-11-15T10:02:58;4.33;;;3.90;;
10985;SDS011;5546;48.714;8.738;2022-11-15T10:05:39;5.37;;;3.60;;
10985;SDS011;5546;48.714;8.738;2022-11-15T10:08:29;4.27;;;3.20;;
10985;SDS011;5546;48.714;8.738;2022-11-15T10:11:10;5.10;;;4.07;;
10985;SDS011;5546;48.714;8.738;2022-11-15T10:13:41;4.27;;;3.33;;
10985;SDS011;5546;48.714;8.738;2022-11-15T10:16:17;4.67;;;3.77;;
10985;SDS011;5546;48.714;8.738;2022-11-15T10:24:22;4.83;;;3.07;;
10985;SDS011;5546;48.714;8.738;2022-11-15T10:26:51;7.83;;;5.13;;
10985;SDS011;5546;48.714;8.738;2022-11-15T10:29:22;5.50;;;4.50;;
10985;SDS011;5546;48.714;8.738;2022-11-15T10:31:49;6.60;;;5.90;;
10985;SDS011;5546;48.714;8.738;2022-11-15T10:34:19;6.40;;;5.53;;
10985;SDS011;5546;48.714;8.738;2022-11-15T10:36:57;6.70;;;4.40;;
10985;SDS011;5546;48.714;8.738;2022-11-15T10:39:24;4.10;;;3.70;;
10985;SDS011;5546;48.714;8.738;2022-11-15T10:41:50;4.13;;;3.73;;
10985;SDS011;5546;48.714;8.738;2022-11-15T10:46:42;6.23;;;3.90;;
10985;SDS011;5546;48.714;8.738;2022-11-15T10:54:36;6.37;;;3.40;;
10985;SDS011;5546;48.714;8.738;2022-11-15T10:59:49;3.97;;;3.23;;
10985;SDS011;5546;48.714;8.738;2022-11-15T11:05:05;5.13;;;3.50;;
10985;SDS011;5546;48.714;8.738;2022-11-15T11:07:55;3.80;;;3.43;;
10985;SDS011;5546;48.714;8.738;2022-11-15T11:10:23;3.87;;;3.47;;
10985;SDS011;5546;48.714;8.738;2022-11-15T11:12:49;5.27;;;3.47;;
10985;SDS011;5546;48.714;8.738;2022-11-15T11:15:15;4.83;;;3.40;;
10985;SDS011;5546;48.714;8.738;2022-11-15T11:20:36;4.70;;;3.17;;
10985;SDS011;5546;48.714;8.738;2022-11-15T11:25:44;3.47;;;3.17;;
10985;SDS011;5546;48.714;8.738;2022-11-15T11:31:16;6.07;;;4.47;;
10985;SDS011;5546;48.714;8.738;2022-11-15T11:41:43;4.67;;;3.10;;
10985;SDS011;5546;48.714;8.738;2022-11-15T11:44:25;3.50;;;2.97;;
10985;SDS011;5546;48.714;8.738;2022-11-15T11:47:03;15.33;;;7.63;;
10985;SDS011;5546;48.714;8.738;2022-11-15T11:49:50;11.03;;;6.63;;
10985;SDS011;5546;48.714;8.738;2022-11-15T11:52:20;5.83;;;4.20;;
10985;SDS011;5546;48.714;8.738;2022-11-15T11:54:58;8.13;;;5.27;;
10985;SDS011;5546;48.714;8.738;2022-11-15T12:03:03;4.63;;;3.77;;
10985;SDS011;5546;48.714;8.738;2022-11-15T12:08:21;4.80;;;3.77;;
10985;SDS011;5546;48.714;8.738;2022-11-15T12:11:01;6.93;;;4.13;;
10985;SDS011;5546;48.714;8.738;2022-11-15T12:13:35;5.03;;;3.57;;
10985;SDS011;5546;48.714;8.738;2022-11-15T12:16:16;4.90;;;3.50;;
10985;SDS011;5546;48.714;8.738;2022-11-15T12:18:47;4.60;;;3.53;;
10985;SDS011;5546;48.714;8.738;2022-11-15T12:21:59;4.27;;;3.00;;
10985;SDS011;5546;48.714;8.738;2022-11-15T12:24:19;5.50;;;3.50;;
10985;SDS011;5546;48.714;8.738;2022-11-15T12:27:11;5.83;;;3.50;;
10985;SDS011;5546;48.714;8.738;2022-11-15T12:29:46;4.60;;;3.53;;
10985;SDS011;5546;48.714;8.738;2022-11-15T12:32:33;5.10;;;4.13;;
10985;SDS011;5546;48.714;8.738;2022-11-15T12:35:02;12.63;;;11.33;;
10985;SDS011;5546;48.714;8.738;2022-11-15T12:37:34;7.33;;;5.30;;
10985;SDS011;5546;48.714;8.738;2022-11-15T12:40:28;17.17;;;12.40;;
10985;SDS011;5546;48.714;8.738;2022-11-15T12:45:43;20.90;;;17.47;;
10985;SDS011;5546;48.714;8.738;2022-11-15T13:06:51;3.00;;;2.70;;
10985;SDS011;5546;48.714;8.738;2022-11-15T13:15:30;6.43;;;3.07;;
10985;SDS011;5546;48.714;8.738;2022-11-15T13:17:44;3.83;;;3.03;;
10985;SDS011;5546;48.714;8.738;2022-11-15T13:20:17;2.90;;;2.60;;
10985;SDS011;5546;48.714;8.738;2022-11-15T13:30:52;3.53;;;2.93;;
10985;SDS011;5546;48.714;8.738;2022-11-15T13:33:22;5.50;;;3.23;;
10985;SDS011;5546;48.714;8.738;2022-11-15T13:35:51;3.43;;;2.47;;
10985;SDS011;5546;48.714;8.738;2022-11-15T13:40:52;5.00;;;3.10;;
10985;SDS011;5546;48.714;8.738;2022-11-15T13:46:06;6.13;;;3.30;;
10985;SDS011;5546;48.714;8.738;2022-11-15T13:48:38;5.63;;;2.80;;
10985;SDS011;5546;48.714;8.738;2022-11-15T13:51:18;4.20;;;2.43;;
10985;SDS011;5546;48.714;8.738;2022-11-15T13:53:56;5.27;;;2.50;;
10985;SDS011;5546;48.714;8.738;2022-11-15T13:56:26;8.47;;;2.53;;
10985;SDS011;5546;48.714;8.738;2022-11-15T13:58:53;4.13;;;2.60;;
10985;SDS011;5546;48.714;8.738;2022-11-15T14:01:19;4.77;;;2.73;;
10985;SDS011;5546;48.714;8.738;2022-11-15T14:03:59;5.17;;;2.40;;
10985;SDS011;5546;48.714;8.738;2022-11-15T14:06:27;5.83;;;2.70;;
10985;SDS011;5546;48.714;8.738;2022-11-15T14:11:31;6.00;;;2.13;;
10985;SDS011;5546;48.714;8.738;2022-11-15T14:16:38;3.27;;;2.20;;
10985;SDS011;5546;48.714;8.738;2022-11-15T14:19:06;8.03;;;5.17;;
10985;SDS011;5546;48.714;8.738;2022-11-15T14:21:34;4.40;;;2.63;;
10985;SDS011;5546;48.714;8.738;2022-11-15T14:24:20;6.20;;;2.50;;
10985;SDS011;5546;48.714;8.738;2022-11-15T14:26:46;7.37;;;2.97;;
10985;SDS011;5546;48.714;8.738;2022-11-15T14:29:23;4.33;;;3.20;;
10985;SDS011;5546;48.714;8.738;2022-11-15T14:34:40;3.80;;;2.63;;
10985;SDS011;5546;48.714;8.738;2022-11-15T14:37:10;3.73;;;2.93;;
10985;SDS011;5546;48.714;8.738;2022-11-15T14:39:47;4.30;;;2.93;;
10985;SDS011;5546;48.714;8.738;2022-11-15T14:42:13;7.50;;;2.70;;
10985;SDS011;5546;48.714;8.738;2022-11-15T14:44:38;3.87;;;2.40;;
10985;SDS011;5546;48.714;8.738;2022-11-15T14:47:03;5.60;;;2.77;;
10985;SDS011;5546;48.714;8.738;2022-11-15T14:49:29;5.77;;;2.13;;
10985;SDS011;5546;48.714;8.738;2022-11-15T14:51:54;4.50;;;2.43;;
10985;SDS011;5546;48.714;8.738;2022-11-15T14:54:20;3.73;;;3.10;;
10985;SDS011;5546;48.714;8.738;2022-11-15T14:56:45;4.47;;;2.60;;
10985;SDS011;5546;48.714;8.738;2022-11-15T14:59:11;2.90;;;2.40;;
10985;SDS011;5546;48.714;8.738;2022-11-15T15:01:37;4.40;;;3.07;;
10985;SDS011;5546;48.714;8.738;2022-11-15T15:04:02;3.10;;;2.57;;
10985;SDS011;5546;48.714;8.738;2022-11-15T15:06:28;4.73;;;2.80;;
10985;SDS011;5546;48.714;8.738;2022-11-15T15:08:55;2.77;;;2.50;;
10985;SDS011;5546;48.714;8.738;2022-11-15T15:11:25;3.57;;;2.70;;
10985;SDS011;5546;48.714;8.738;2022-11-15T15:13:52;4.57;;;2.80;;
10985;SDS011;5546;48.714;8.738;2022-11-15T15:16:21;4.10;;;2.70;;
10985;SDS011;5546;48.714;8.738;2022-11-15T15:18:47;5.60;;;2.53;;
10985;SDS011;5546;48.714;8.738;2022-11-15T15:23:44;8.70;;;6.80;;
10985;SDS011;5546;48.714;8.738;2022-11-15T15:26:09;3.37;;;2.93;;
10985;SDS011;5546;48.714;8.738;2022-11-15T15:28:35;6.87;;;3.87;;
10985;SDS011;5546;48.714;8.738;2022-11-15T15:31:01;5.40;;;3.83;;
10985;SDS011;5546;48.714;8.738;2022-11-15T15:33:26;4.93;;;3.00;;
10985;SDS011;5546;48.714;8.738;2022-11-15T15:35:52;4.90;;;2.33;;
10985;SDS011;5546;48.714;8.738;2022-11-15T15:38:17;4.33;;;2.40;;
10985;SDS011;5546;48.714;8.738;2022-11-15T15:40:43;5.90;;;3.10;;
10985;SDS011;5546;48.714;8.738;2022-11-15T15:43:08;4.20;;;2.33;;
10985;SDS011;5546;48.714;8.738;2022-11-15T15:45:35;3.93;;;2.53;;
10985;SDS011;5546;48.714;8.738;2022-11-15T15:48:02;3.03;;;2.50;;
10985;SDS011;5546;48.714;8.738;2022-11-15T15:50:29;4.17;;;2.93;;
10985;SDS011;5546;48.714;8.738;2022-11-15T15:52:58;4.80;;;2.50;;
10985;SDS011;5546;48.714;8.738;2022-11-15T15:55:25;3.13;;;2.50;;
10985;SDS011;5546;48.714;8.738;2022-11-15T15:57:51;5.00;;;2.63;;
10985;SDS011;5546;48.714;8.738;2022-11-15T16:00:17;5.47;;;3.10;;
10985;SDS011;5546;48.714;8.738;2022-11-15T16:02:43;4.40;;;3.07;;
10985;SDS011;5546;48.714;8.738;2022-11-15T16:05:10;4.10;;;2.80;;
10985;SDS011;5546;48.714;8.738;2022-11-15T16:07:36;5.33;;;3.53;;
10985;SDS011;5546;48.714;8.738;2022-11-15T16:10:12;4.43;;;3.63;;
10985;SDS011;5546;48.714;8.738;2022-11-15T16:12:47;6.00;;;2.90;;
10985;SDS011;5546;48.714;8.738;2022-11-15T16:15:13;5.70;;;3.00;;
10985;SDS011;5546;48.714;8.738;2022-11-15T16:17:40;5.40;;;3.03;;
10985;SDS011;5546;48.714;8.738;2022-11-15T16:20:15;4.30;;;3.87;;
10985;SDS011;5546;48.714;8.738;2022-11-15T16:22:48;3.63;;;3.00;;
10985;SDS011;5546;48.714;8.738;2022-11-15T16:25:14;4.87;;;2.90;;
10985;SDS011;5546;48.714;8.738;2022-11-15T16:27:39;7.77;;;3.30;;
10985;SDS011;5546;48.714;8.738;2022-11-15T16:30:20;4.50;;;2.90;;
10985;SDS011;5546;48.714;8.738;2022-11-15T16:32:47;5.57;;;3.10;;
10985;SDS011;5546;48.714;8.738;2022-11-15T16:35:13;4.23;;;2.80;;
10985;SDS011;5546;48.714;8.738;2022-11-15T16:37:40;6.97;;;2.90;;
10985;SDS011;5546;48.714;8.738;2022-11-15T16:40:21;3.90;;;2.90;;
10985;SDS011;5546;48.714;8.738;2022-11-15T16:42:51;9.17;;;2.60;;
10985;SDS011;5546;48.714;8.738;2022-11-15T16:45:17;6.83;;;3.23;;
10985;SDS011;5546;48.714;8.738;2022-11-15T16:47:42;7.50;;;3.10;;
10985;SDS011;5546;48.714;8.738;2022-11-15T16:50:27;4.07;;;2.90;;
10985;SDS011;5546;48.714;8.738;2022-11-15T16:52:55;8.03;;;3.20;;
10985;SDS011;5546;48.714;8.738;2022-11-15T16:55:22;4.07;;;3.13;;
10985;SDS011;5546;48.714;8.738;2022-11-15T16:57:50;4.53;;;2.87;;
10985;SDS011;5546;48.714;8.738;2022-11-15T17:00:16;6.47;;;4.83;;
10985;SDS011;5546;48.714;8.738;2022-11-15T17:02:43;6.40;;;4.47;;
10985;SDS011;5546;48.714;8.738;2022-11-15T17:05:13;7.67;;;3.60;;
10985;SDS011;5546;48.714;8.738;2022-11-15T17:07:40;7.23;;;3.77;;
10985;SDS011;5546;48.714;8.738;2022-11-15T17:10:06;4.97;;;3.30;;